Time;durP1;ratioP1;P1;durP2;ratioP2;P2;SDS_P1;SDS_P2;PMS_P1;PMS_P2;Temp;Humidity;BMP_temperature;BMP_pressure;BME280_temperature;BME280_humidity;BME280_pressure;Samples;Min_cycle;Max_cycle;Signal;HPM_P1;HPM_P2
2023/09/08 00:01:48;;;;;;;23.52;15.75;;;;;;;;;;10125675;29;20075;-91
2023/09/08 00:06:50;;;;;;;23.70;15.75;;;;;;;;;;10111882;29;20029;-92
2023/09/08 00:11:52;;;;;;;22.52;15.77;;;;;;;;;;10112449;29;20028;-90
2023/09/08 00:16:54;;;;;;;30.05;18.33;;;;;;;;;;10112030;29;20047;-91
2023/09/08 00:21:55;;;;;;;29.33;18.08;;;;;;;;;;10111237;29;20481;-91
2023/09/08 00:26:56;;;;;;;27.58;16.33;;;;;;;;;;10111107;29;20052;-90
2023/09/08 00:31:57;;;;;;;26.63;17.20;;;;;;;;;;10110363;29;20448;-90
2023/09/08 00:37:00;;;;;;;25.00;17.85;;;;;;;;;;10110697;29;20040;-90
2023/09/08 00:42:09;;;;;;;29.50;18.48;;;;;;;;;;10108586;29;20056;-91
2023/09/08 00:47:19;;;;;;;22.70;16.58;;;;;;;;;;10111046;29;20549;-92
2023/09/08 00:52:21;;;;;;;24.38;16.67;;;;;;;;;;10109375;29;20157;-90
2023/09/08 00:57:22;;;;;;;24.48;17.10;;;;;;;;;;10123400;29;20028;-91
2023/09/08 01:02:23;;;;;;;26.33;17.48;;;;;;;;;;10110711;29;20425;-90
2023/09/08 01:07:24;;;;;;;26.02;17.65;;;;;;;;;;10109590;29;20024;-90
2023/09/08 01:12:25;;;;;;;26.15;16.98;;;;;;;;;;10109302;29;20025;-90
2023/09/08 01:17:26;;;;;;;23.73;16.70;;;;;;;;;;10108892;29;20028;-90
2023/09/08 01:22:27;;;;;;;22.67;16.55;;;;;;;;;;10110173;29;20043;-89
2023/09/08 01:27:29;;;;;;;23.23;15.43;;;;;;;;;;10109289;29;20076;-91
2023/09/08 01:32:30;;;;;;;24.65;16.83;;;;;;;;;;10108222;29;20028;-90
2023/09/08 01:37:31;;;;;;;26.02;15.70;;;;;;;;;;10109279;29;20041;-89
2023/09/08 01:42:32;;;;;;;22.70;15.88;;;;;;;;;;10108355;29;20032;-90
2023/09/08 01:47:34;;;;;;;25.33;16.90;;;;;;;;;;10108192;29;20059;-90
2023/09/08 01:52:35;;;;;;;26.00;17.45;;;;;;;;;;10115578;29;20028;-91
2023/09/08 01:57:36;;;;;;;26.45;16.73;;;;;;;;;;10107866;29;20029;-90
2023/09/08 02:02:37;;;;;;;21.48;16.38;;;;;;;;;;10119485;29;20056;-92
2023/09/08 02:07:38;;;;;;;25.05;16.80;;;;;;;;;;10120229;29;20847;-90
2023/09/08 02:12:40;;;;;;;23.33;17.13;;;;;;;;;;10108017;29;20135;-90
2023/09/08 02:17:41;;;;;;;26.17;17.13;;;;;;;;;;10107759;29;20089;-91
2023/09/08 02:22:42;;;;;;;22.58;15.55;;;;;;;;;;10106484;29;20147;-89
2023/09/08 02:27:43;;;;;;;25.08;16.70;;;;;;;;;;10107178;29;20088;-90
2023/09/08 02:32:44;;;;;;;22.77;16.38;;;;;;;;;;10105437;29;20029;-91
2023/09/08 02:37:45;;;;;;;21.73;14.10;;;;;;;;;;10106518;29;20040;-90
2023/09/08 02:42:46;;;;;;;26.25;16.58;;;;;;;;;;10111030;29;20128;-91
2023/09/08 02:47:47;;;;;;;22.20;15.98;;;;;;;;;;10106583;29;20471;-91
2023/09/08 02:52:49;;;;;;;23.55;16.40;;;;;;;;;;10118224;29;20107;-89
2023/09/08 02:57:50;;;;;;;19.02;14.13;;;;;;;;;;10104608;29;20025;-89
2023/09/08 03:02:53;;;;;;;26.67;17.48;;;;;;;;;;10105558;29;20421;-91
2023/09/08 03:07:54;;;;;;;29.17;19.77;;;;;;;;;;10107252;29;20024;-90
2023/09/08 03:12:55;;;;;;;45.90;25.70;;;;;;;;;;10106759;29;20120;-90
2023/09/08 03:18:00;;;;;;;322.83;139.35;;;;;;;;;;10114261;29;20127;-88
2023/09/08 03:23:01;;;;;;;334.58;146.02;;;;;;;;;;10105422;29;20044;-88
2023/09/08 03:28:03;;;;;;;245.55;106.68;;;;;;;;;;10105399;29;20049;-90
2023/09/08 03:33:04;;;;;;;504.40;258.73;;;;;;;;;;10104630;29;20418;-88
2023/09/08 03:38:05;;;;;;;527.45;300.60;;;;;;;;;;10105281;29;20021;-90
2023/09/08 03:43:06;;;;;;;116.90;60.95;;;;;;;;;;10104958;29;20084;-90
2023/09/08 03:48:07;;;;;;;39.08;24.05;;;;;;;;;;10104233;29;20037;-90
2023/09/08 03:53:08;;;;;;;53.63;29.17;;;;;;;;;;10117275;29;20043;-90
2023/09/08 03:58:09;;;;;;;78.63;38.33;;;;;;;;;;10105322;29;20037;-87
2023/09/08 04:03:10;;;;;;;59.75;31.35;;;;;;;;;;10104792;29;20041;-87
2023/09/08 04:08:11;;;;;;;47.53;27.88;;;;;;;;;;10102490;29;20024;-89
2023/09/08 04:13:12;;;;;;;31.45;22.48;;;;;;;;;;10104483;29;20681;-90
2023/09/08 04:18:13;;;;;;;29.55;20.17;;;;;;;;;;10104414;29;20037;-91
2023/09/08 04:23:14;;;;;;;31.73;21.38;;;;;;;;;;10098792;29;20026;-87
2023/09/08 04:28:15;;;;;;;27.38;19.63;;;;;;;;;;10107252;29;20059;-89
2023/09/08 04:33:16;;;;;;;24.40;18.13;;;;;;;;;;10121188;29;20697;-89
2023/09/08 04:38:17;;;;;;;24.88;19.20;;;;;;;;;;10124883;29;20123;-88
2023/09/08 04:43:19;;;;;;;27.10;19.02;;;;;;;;;;10125897;29;20318;-89
2023/09/08 04:48:20;;;;;;;53.92;25.45;;;;;;;;;;10125191;29;20450;-87
2023/09/08 04:53:21;;;;;;;46.60;26.10;;;;;;;;;;10124495;29;20418;-87
2023/09/08 04:58:22;;;;;;;31.73;20.58;;;;;;;;;;10105392;29;20021;-86
2023/09/08 05:03:23;;;;;;;25.50;18.60;;;;;;;;;;10114894;29;20040;-86
2023/09/08 05:08:24;;;;;;;27.83;18.63;;;;;;;;;;10124749;29;20118;-86
2023/09/08 05:13:26;;;;;;;25.88;18.63;;;;;;;;;;10119480;29;20029;-91
2023/09/08 05:18:31;;;;;;;28.83;19.88;;;;;;;;;;10114769;29;20091;-94
2023/09/08 05:23:32;;;;;;;27.40;17.50;;;;;;;;;;10124904;29;20032;-91
2023/09/08 05:28:33;;;;;;;26.45;18.40;;;;;;;;;;10114810;29;20072;-89
2023/09/08 05:33:34;;;;;;;25.80;18.00;;;;;;;;;;10107602;29;20059;-91
2023/09/08 05:38:35;;;;;;;25.40;18.30;;;;;;;;;;10123973;29;20028;-89
2023/09/08 05:43:36;;;;;;;23.35;16.05;;;;;;;;;;10107448;29;20529;-90
2023/09/08 05:48:37;;;;;;;27.27;17.88;;;;;;;;;;10108655;29;20032;-89
2023/09/08 05:53:39;;;;;;;26.73;17.15;;;;;;;;;;10111666;29;20503;-88
2023/09/08 05:58:41;;;;;;;27.42;17.98;;;;;;;;;;10119715;29;20116;-89
2023/09/08 06:03:42;;;;;;;25.83;18.45;;;;;;;;;;10122047;29;20052;-89
2023/09/08 06:08:43;;;;;;;23.55;17.02;;;;;;;;;;10122445;29;20025;-90
2023/09/08 06:13:44;;;;;;;27.48;17.65;;;;;;;;;;10134122;29;20516;-86
2023/09/08 06:18:45;;;;;;;27.63;18.27;;;;;;;;;;10122671;29;20035;-86
2023/09/08 06:23:47;;;;;;;24.85;16.30;;;;;;;;;;10122504;29;20652;-86
2023/09/08 06:28:48;;;;;;;30.35;17.33;;;;;;;;;;10122345;29;20059;-86
2023/09/08 06:33:51;;;;;;;26.00;16.45;;;;;;;;;;10122481;29;20024;-87
2023/09/08 06:38:52;;;;;;;29.10;16.52;;;;;;;;;;10122403;29;20039;-89
2023/09/08 06:43:53;;;;;;;21.63;15.73;;;;;;;;;;10121727;29;20076;-87
2023/09/08 06:48:54;;;;;;;21.30;14.23;;;;;;;;;;10121957;29;20036;-88
2023/09/08 06:53:56;;;;;;;22.42;15.13;;;;;;;;;;10121658;29;20028;-88
2023/09/08 06:59:00;;;;;;;23.60;13.65;;;;;;;;;;10134586;29;20045;-87
2023/09/08 07:04:01;;;;;;;18.95;12.88;;;;;;;;;;10121277;29;20067;-89
2023/09/08 07:09:04;;;;;;;19.42;11.55;;;;;;;;;;10122408;29;20164;-88
2023/09/08 07:14:05;;;;;;;19.92;12.05;;;;;;;;;;10120714;29;20127;-87
2023/09/08 07:19:06;;;;;;;25.15;13.00;;;;;;;;;;10121194;29;20404;-88
2023/09/08 07:24:07;;;;;;;20.35;11.75;;;;;;;;;;10120437;29;20044;-88
2023/09/08 07:29:08;;;;;;;15.35;10.02;;;;;;;;;;10120718;29;20092;-87
2023/09/08 07:34:09;;;;;;;14.48;10.25;;;;;;;;;;10120900;29;20729;-88
2023/09/08 07:39:10;;;;;;;17.25;10.25;;;;;;;;;;10120361;29;20032;-87
2023/09/08 07:44:13;;;;;;;17.10;8.38;;;;;;;;;;10133566;29;20448;-89
2023/09/08 07:49:14;;;;;;;12.18;8.52;;;;;;;;;;10120613;29;20020;-88
2023/09/08 07:54:16;;;;;;;14.48;9.00;;;;;;;;;;10121131;29;20075;-88
2023/09/08 07:59:17;;;;;;;11.85;7.55;;;;;;;;;;10127482;29;20491;-87
2023/09/08 08:04:18;;;;;;;13.95;9.93;;;;;;;;;;10127178;29;20033;-89
2023/09/08 08:09:19;;;;;;;11.52;7.68;;;;;;;;;;10128137;29;20155;-87
2023/09/08 08:14:20;;;;;;;14.68;7.53;;;;;;;;;;10127438;29;20111;-86
2023/09/08 08:19:21;;;;;;;12.45;8.30;;;;;;;;;;10127355;29;20076;-87
2023/09/08 08:24:22;;;;;;;15.13;7.68;;;;;;;;;;10126532;29;20127;-88
2023/09/08 08:29:23;;;;;;;11.57;6.50;;;;;;;;;;10126495;29;20049;-88
2023/09/08 08:34:24;;;;;;;10.73;6.72;;;;;;;;;;10126668;29;20410;-88
2023/09/08 08:39:25;;;;;;;9.95;6.25;;;;;;;;;;10126295;29;20447;-88
2023/09/08 08:44:26;;;;;;;12.35;8.35;;;;;;;;;;10126266;29;20087;-90
2023/09/08 08:49:27;;;;;;;8.82;6.65;;;;;;;;;;10126429;29;20091;-91
2023/09/08 08:54:29;;;;;;;8.32;5.90;;;;;;;;;;10126376;29;20031;-85
2023/09/08 08:59:30;;;;;;;9.60;5.90;;;;;;;;;;10138538;29;20032;-88
2023/09/08 09:04:31;;;;;;;10.02;6.80;;;;;;;;;;10125716;29;20040;-88
2023/09/08 09:09:32;;;;;;;9.68;6.47;;;;;;;;;;10125218;29;20029;-88
2023/09/08 09:14:34;;;;;;;9.52;6.65;;;;;;;;;;10124993;29;20108;-88
2023/09/08 09:19:37;;;;;;;9.98;6.10;;;;;;;;;;10125453;29;20369;-90
2023/09/08 09:24:41;;;;;;;8.45;6.50;;;;;;;;;;10125001;29;20048;-89
2023/09/08 09:29:49;;;;;;;10.10;6.83;;;;;;;;;;10124728;29;20555;-88
2023/09/08 09:34:53;;;;;;;10.40;6.53;;;;;;;;;;10124684;29;20371;-87
2023/09/08 09:39:54;;;;;;;10.50;7.07;;;;;;;;;;10137170;29;20024;-90
2023/09/08 09:44:55;;;;;;;11.27;6.53;;;;;;;;;;10124239;29;20043;-88
2023/09/08 09:49:58;;;;;;;8.90;7.07;;;;;;;;;;10136660;29;20360;-88
2023/09/08 09:54:59;;;;;;;12.43;6.65;;;;;;;;;;10124408;29;20071;-88
2023/09/08 10:00:05;;;;;;;9.77;6.20;;;;;;;;;;10123501;29;20029;-87
2023/09/08 10:05:12;;;;;;;8.32;6.03;;;;;;;;;;10122958;29;20056;-87
2023/09/08 10:10:14;;;;;;;7.55;5.57;;;;;;;;;;10122971;29;20425;-87
2023/09/08 10:15:18;;;;;;;6.28;5.10;;;;;;;;;;10135973;29;20025;-89
2023/09/08 10:20:21;;;;;;;7.22;5.32;;;;;;;;;;10134604;29;20029;-89
2023/09/08 10:25:24;;;;;;;7.68;5.20;;;;;;;;;;10134204;29;20072;-88
2023/09/08 10:30:25;;;;;;;9.82;5.70;;;;;;;;;;10124045;29;20033;-88
2023/09/08 10:35:26;;;;;;;7.35;5.53;;;;;;;;;;10106664;29;20024;-89
2023/09/08 10:40:29;;;;;;;6.22;5.10;;;;;;;;;;10106063;29;20488;-87
2023/09/08 10:45:31;;;;;;;7.72;5.57;;;;;;;;;;10107324;29;20036;-88
2023/09/08 10:50:36;;;;;;;7.13;4.78;;;;;;;;;;10117486;29;20404;-88
2023/09/08 10:55:40;;;;;;;6.15;4.35;;;;;;;;;;10105685;29;20088;-89
2023/09/08 11:00:54;;;;;;;5.65;4.13;;;;;;;;;;10111232;29;20027;-91
2023/09/08 11:05:55;;;;;;;7.13;4.78;;;;;;;;;;10111358;29;20035;-89
2023/09/08 11:10:56;;;;;;;7.30;4.30;;;;;;;;;;10106288;29;20024;-87
2023/09/08 11:15:57;;;;;;;6.38;4.55;;;;;;;;;;10105354;29;20119;-88
2023/09/08 11:20:59;;;;;;;7.43;4.97;;;;;;;;;;10105399;29;20043;-89
2023/09/08 11:26:00;;;;;;;6.85;4.82;;;;;;;;;;10105200;29;20049;-88
2023/09/08 11:31:03;;;;;;;5.25;4.50;;;;;;;;;;10109078;29;20077;-88
2023/09/08 11:36:12;;;;;;;8.48;5.38;;;;;;;;;;10122487;29;20384;-88
2023/09/08 11:41:13;;;;;;;13.27;5.85;;;;;;;;;;10112143;29;20609;-87
2023/09/08 11:46:15;;;;;;;7.15;4.90;;;;;;;;;;10111780;29;20040;-88
2023/09/08 11:51:16;;;;;;;7.47;4.78;;;;;;;;;;10112833;29;20123;-86
2023/09/08 11:56:17;;;;;;;7.53;4.60;;;;;;;;;;10114535;29;20035;-86
2023/09/08 12:01:19;;;;;;;7.95;4.57;;;;;;;;;;10108726;29;20037;-89
2023/09/08 12:06:20;;;;;;;7.10;4.72;;;;;;;;;;10103908;29;20029;-87
2023/09/08 12:11:21;;;;;;;9.73;5.47;;;;;;;;;;10111999;29;20036;-87
2023/09/08 12:16:22;;;;;;;10.07;6.03;;;;;;;;;;10111098;29;20393;-89
2023/09/08 12:21:23;;;;;;;10.65;6.15;;;;;;;;;;10124356;29;20096;-88
2023/09/08 12:26:29;;;;;;;14.10;6.85;;;;;;;;;;10099557;29;20056;-86
2023/09/08 12:31:30;;;;;;;9.90;6.70;;;;;;;;;;10104497;29;20092;-86
2023/09/08 12:36:31;;;;;;;8.20;5.10;;;;;;;;;;10110294;29;20024;-88
2023/09/08 12:41:33;;;;;;;8.18;5.50;;;;;;;;;;10109728;29;20028;-87
2023/09/08 12:46:35;;;;;;;6.13;4.72;;;;;;;;;;10110187;29;20060;-86
2023/09/08 12:51:37;;;;;;;10.35;5.05;;;;;;;;;;10110468;29;20584;-87
2023/09/08 12:56:38;;;;;;;11.52;5.38;;;;;;;;;;10113545;29;20025;-89
2023/09/08 13:01:39;;;;;;;9.07;4.90;;;;;;;;;;10111979;29;20025;-89
2023/09/08 13:06:40;;;;;;;11.30;5.88;;;;;;;;;;10107880;29;20036;-89
2023/09/08 13:11:42;;;;;;;10.20;5.95;;;;;;;;;;10109726;29;20032;-87
2023/09/08 13:16:46;;;;;;;11.77;6.43;;;;;;;;;;10107358;29;20425;-88
2023/09/08 13:21:47;;;;;;;7.22;4.50;;;;;;;;;;10107227;29;20405;-89
2023/09/08 13:26:51;;;;;;;8.32;4.78;;;;;;;;;;10124633;29;20048;-90
2023/09/08 13:31:52;;;;;;;8.20;4.65;;;;;;;;;;10109114;29;20032;-89
2023/09/08 13:36:53;;;;;;;6.97;5.30;;;;;;;;;;10113548;29;20100;-89
2023/09/08 13:47:25;;;;;;;9.65;5.50;;;;;;;;;;10110001;29;20465;-91
2023/09/08 13:53:48;;;;;;;11.38;6.13;;;;;;;;;;10108337;29;20020;-91
2023/09/08 13:58:30;;;;;;;9.93;5.68;;;;;;;;;;10092777;29;20123;-90
2023/09/08 14:03:31;;;;;;;11.07;5.90;;;;;;;;;;10106627;29;20028;-91
2023/09/08 14:08:32;;;;;;;10.15;6.32;;;;;;;;;;10120131;29;20043;-90
2023/09/08 14:13:33;;;;;;;9.40;5.70;;;;;;;;;;10101059;29;20033;-91
2023/09/08 14:18:34;;;;;;;8.63;5.38;;;;;;;;;;10103366;29;20040;-90
2023/09/08 14:23:38;;;;;;;9.43;5.72;;;;;;;;;;10097586;29;20780;-88
2023/09/08 14:28:39;;;;;;;9.63;5.65;;;;;;;;;;10104031;29;20139;-89
2023/09/08 14:33:40;;;;;;;11.90;6.25;;;;;;;;;;10117757;29;20063;-91
2023/09/08 14:38:41;;;;;;;11.82;6.53;;;;;;;;;;10129035;29;20117;-89
2023/09/08 14:43:42;;;;;;;8.93;5.68;;;;;;;;;;10120064;29;20537;-87
2023/09/08 14:48:43;;;;;;;9.68;6.43;;;;;;;;;;10119764;29;20488;-87
2023/09/08 14:53:44;;;;;;;10.85;5.65;;;;;;;;;;10123312;29;20032;-90
2023/09/08 14:58:45;;;;;;;8.55;5.38;;;;;;;;;;10118083;29;20071;-89
2023/09/08 15:03:46;;;;;;;11.48;6.72;;;;;;;;;;10119920;29;20076;-89
2023/09/08 15:08:48;;;;;;;15.80;9.23;;;;;;;;;;10119855;29;20602;-86
2023/09/08 15:13:49;;;;;;;9.48;5.65;;;;;;;;;;10120337;29;20028;-89
2023/09/08 15:18:50;;;;;;;11.50;5.63;;;;;;;;;;10124878;29;20029;-90
2023/09/08 15:23:51;;;;;;;8.60;5.40;;;;;;;;;;10120717;29;20036;-90
2023/09/08 15:28:53;;;;;;;6.85;5.35;;;;;;;;;;10101462;29;20056;-89
2023/09/08 15:33:54;;;;;;;10.35;4.88;;;;;;;;;;10119321;29;20499;-90
2023/09/08 15:38:55;;;;;;;8.73;5.70;;;;;;;;;;10113071;29;20111;-90
2023/09/08 15:43:56;;;;;;;8.07;5.25;;;;;;;;;;10123558;29;20052;-90
2023/09/08 15:48:58;;;;;;;8.82;5.30;;;;;;;;;;10119633;29;20032;-88
2023/09/08 15:53:59;;;;;;;6.40;4.63;;;;;;;;;;10120134;29;20128;-89
2023/09/08 15:59:00;;;;;;;8.32;5.07;;;;;;;;;;10112577;29;20025;-89
2023/09/08 16:04:05;;;;;;;7.18;4.85;;;;;;;;;;10120918;29;20602;-89
2023/09/08 16:09:06;;;;;;;8.25;4.97;;;;;;;;;;10123546;29;20101;-89
2023/09/08 16:14:07;;;;;;;9.38;5.47;;;;;;;;;;10120316;29;20040;-90
2023/09/08 16:19:08;;;;;;;6.78;5.07;;;;;;;;;;10108200;29;20136;-89
2023/09/08 16:24:09;;;;;;;6.40;4.68;;;;;;;;;;10134286;29;20039;-88
2023/09/08 16:29:10;;;;;;;7.40;5.57;;;;;;;;;;10128081;29;20104;-88
2023/09/08 16:34:11;;;;;;;6.25;4.93;;;;;;;;;;10126428;29;20028;-88
2023/09/08 16:39:12;;;;;;;7.95;5.07;;;;;;;;;;10130457;29;20080;-87
2023/09/08 16:44:13;;;;;;;8.45;6.07;;;;;;;;;;10126966;29;20544;-87
2023/09/08 16:49:18;;;;;;;7.40;5.25;;;;;;;;;;10110326;29;20039;-87
2023/09/08 16:54:19;;;;;;;7.93;5.83;;;;;;;;;;10136489;29;20036;-88
2023/09/08 16:59:20;;;;;;;8.82;5.43;;;;;;;;;;10123640;29;20033;-85
2023/09/08 17:04:21;;;;;;;7.10;5.30;;;;;;;;;;10125713;29;20127;-86
2023/09/08 17:09:24;;;;;;;8.27;5.50;;;;;;;;;;10124876;29;20024;-87
2023/09/08 17:14:25;;;;;;;9.25;5.60;;;;;;;;;;10130144;29;20067;-88
2023/09/08 17:19:26;;;;;;;11.38;6.13;;;;;;;;;;10119901;29;20131;-83
2023/09/08 17:24:27;;;;;;;8.13;5.65;;;;;;;;;;10109598;29;20048;-86
2023/09/08 17:29:29;;;;;;;10.93;6.50;;;;;;;;;;10123907;29;20047;-86
2023/09/08 17:34:30;;;;;;;10.80;6.53;;;;;;;;;;10106397;29;20092;-88
2023/09/08 17:39:31;;;;;;;57.70;30.80;;;;;;;;;;10125054;29;20032;-88
2023/09/08 17:44:33;;;;;;;22.50;12.45;;;;;;;;;;10128121;29;20043;-86
2023/09/08 17:49:36;;;;;;;14.65;10.55;;;;;;;;;;10108241;29;20738;-88
2023/09/08 17:54:37;;;;;;;15.68;9.18;;;;;;;;;;10103326;29;20052;-89
2023/09/08 17:59:39;;;;;;;14.25;9.27;;;;;;;;;;10096138;29;20028;-88
2023/09/08 18:04:41;;;;;;;12.13;7.85;;;;;;;;;;10113571;29;20523;-88
2023/09/08 18:09:54;;;;;;;12.70;7.57;;;;;;;;;;10102343;29;20051;-89
2023/09/08 18:14:55;;;;;;;14.40;8.73;;;;;;;;;;10105423;29;20036;-87
2023/09/08 18:19:58;;;;;;;13.23;8.82;;;;;;;;;;10107324;29;20033;-88
2023/09/08 18:25:00;;;;;;;12.32;8.43;;;;;;;;;;10123691;29;20040;-87
2023/09/08 18:30:01;;;;;;;12.23;8.43;;;;;;;;;;10122607;29;20053;-87
2023/09/08 18:35:02;;;;;;;13.20;7.45;;;;;;;;;;10129644;29;20521;-86
2023/09/08 18:40:06;;;;;;;14.93;8.73;;;;;;;;;;10119483;29;20041;-87
2023/09/08 18:45:07;;;;;;;14.43;8.30;;;;;;;;;;10121696;29;20052;-86
2023/09/08 18:50:08;;;;;;;12.40;8.13;;;;;;;;;;10124075;29;20035;-86
2023/09/08 18:55:09;;;;;;;13.20;8.35;;;;;;;;;;10121551;29;20033;-89
2023/09/08 19:00:11;;;;;;;14.00;8.80;;;;;;;;;;10121494;29;20055;-87
2023/09/08 19:05:12;;;;;;;18.45;9.23;;;;;;;;;;10121024;29;20041;-90
2023/09/08 19:10:13;;;;;;;15.27;9.52;;;;;;;;;;10112935;29;20044;-88
2023/09/08 19:15:15;;;;;;;15.57;10.15;;;;;;;;;;10115332;29;20040;-89
2023/09/08 19:20:35;;;;;;;14.77;10.23;;;;;;;;;;10120037;29;20052;-89
2023/09/08 19:25:41;;;;;;;16.02;10.35;;;;;;;;;;10121048;29;20056;-89
2023/09/08 19:30:47;;;;;;;18.92;10.10;;;;;;;;;;10104796;29;20039;-89
2023/09/08 19:35:48;;;;;;;15.02;10.07;;;;;;;;;;10104011;29;20029;-88
2023/09/08 19:40:49;;;;;;;17.67;10.35;;;;;;;;;;10095864;29;20033;-87
2023/09/08 19:45:52;;;;;;;14.85;10.43;;;;;;;;;;10105135;29;20429;-89
2023/09/08 19:50:53;;;;;;;14.32;9.50;;;;;;;;;;10107045;29;20506;-89
2023/09/08 19:55:55;;;;;;;14.93;10.63;;;;;;;;;;10113170;29;20342;-87
2023/09/08 20:01:07;;;;;;;14.02;9.88;;;;;;;;;;10097015;29;20108;-86
2023/09/08 20:06:08;;;;;;;12.23;9.65;;;;;;;;;;10125350;29;20134;-88
2023/09/08 20:11:09;;;;;;;16.25;10.95;;;;;;;;;;10134910;29;20310;-88
2023/09/08 20:16:10;;;;;;;14.82;10.02;;;;;;;;;;10129025;29;20031;-86
2023/09/08 20:21:11;;;;;;;14.80;10.55;;;;;;;;;;10110346;29;20029;-88
2023/09/08 20:26:12;;;;;;;18.58;10.77;;;;;;;;;;10120692;29;20169;-88
2023/09/08 20:31:13;;;;;;;18.67;11.02;;;;;;;;;;10111643;29;20033;-88
2023/09/08 20:36:15;;;;;;;16.52;10.82;;;;;;;;;;10124608;29;20029;-87
2023/09/08 20:41:16;;;;;;;16.73;11.25;;;;;;;;;;10110729;29;20147;-86
2023/09/08 20:46:17;;;;;;;15.48;11.50;;;;;;;;;;10110979;29;20052;-89
2023/09/08 20:51:22;;;;;;;17.65;12.13;;;;;;;;;;10111098;29;20037;-89
2023/09/08 20:56:23;;;;;;;16.73;10.50;;;;;;;;;;10111091;29;20032;-88
2023/09/08 21:01:26;;;;;;;17.33;11.55;;;;;;;;;;10111160;29;20028;-89
2023/09/08 21:06:27;;;;;;;14.55;10.38;;;;;;;;;;10123124;29;20070;-88
2023/09/08 21:11:28;;;;;;;15.90;11.50;;;;;;;;;;10100851;29;20032;-90
2023/09/08 21:16:30;;;;;;;15.07;11.18;;;;;;;;;;10101775;29;20397;-89
2023/09/08 21:21:32;;;;;;;14.90;10.82;;;;;;;;;;10100772;29;20757;-88
2023/09/08 21:26:33;;;;;;;17.40;11.00;;;;;;;;;;10104734;29;20048;-88
2023/09/08 21:31:34;;;;;;;15.57;10.57;;;;;;;;;;10098045;29;20354;-90
2023/09/08 21:36:38;;;;;;;14.88;11.07;;;;;;;;;;10108441;29;20032;-92
2023/09/08 21:41:39;;;;;;;19.95;12.73;;;;;;;;;;10108857;29;20421;-92
2023/09/08 21:46:40;;;;;;;19.38;12.10;;;;;;;;;;10103145;29;20044;-91
2023/09/08 21:51:47;;;;;;;16.48;11.20;;;;;;;;;;10080291;29;20621;-89
2023/09/08 21:56:48;;;;;;;19.40;12.95;;;;;;;;;;10107868;29;20039;-89
2023/09/08 22:01:49;;;;;;;15.27;11.40;;;;;;;;;;10108107;29;20168;-91
2023/09/08 22:06:50;;;;;;;19.25;12.60;;;;;;;;;;10109160;29;20062;-91
2023/09/08 22:11:51;;;;;;;17.65;11.38;;;;;;;;;;10107913;29;20025;-90
2023/09/08 22:16:52;;;;;;;18.88;11.90;;;;;;;;;;10107928;29;20159;-90
2023/09/08 22:21:53;;;;;;;18.75;12.93;;;;;;;;;;10108599;29;20115;-92
2023/09/08 22:26:55;;;;;;;18.65;12.73;;;;;;;;;;10108226;29;20056;-87
2023/09/08 22:31:56;;;;;;;18.58;12.63;;;;;;;;;;10108786;29;20107;-89
2023/09/08 22:36:57;;;;;;;19.98;13.38;;;;;;;;;;10107415;29;20057;-87
2023/09/08 22:41:58;;;;;;;20.05;13.50;;;;;;;;;;10107681;29;21000;-90
2023/09/08 22:46:59;;;;;;;21.42;13.50;;;;;;;;;;10107035;29;20754;-88
2023/09/08 22:52:00;;;;;;;18.83;13.43;;;;;;;;;;10106868;29;20060;-89
2023/09/08 22:57:01;;;;;;;24.60;13.88;;;;;;;;;;10106225;29;20151;-87
2023/09/08 23:02:03;;;;;;;21.35;13.65;;;;;;;;;;10105783;29;20639;-89
2023/09/08 23:07:04;;;;;;;22.33;14.07;;;;;;;;;;10106786;29;20040;-89
2023/09/08 23:12:05;;;;;;;21.08;13.35;;;;;;;;;;10105245;29;20135;-89
2023/09/08 23:17:06;;;;;;;20.95;14.75;;;;;;;;;;10105417;29;20025;-91
2023/09/08 23:22:07;;;;;;;20.70;14.05;;;;;;;;;;10106531;29;20029;-90
2023/09/08 23:27:09;;;;;;;21.75;14.13;;;;;;;;;;10104496;29;20400;-88
2023/09/08 23:32:11;;;;;;;22.02;14.15;;;;;;;;;;10104456;29;20096;-88
2023/09/08 23:37:12;;;;;;;21.25;14.20;;;;;;;;;;10104562;29;20033;-90
2023/09/08 23:42:13;;;;;;;20.15;14.60;;;;;;;;;;10105355;29;20036;-89
2023/09/08 23:47:14;;;;;;;19.23;14.52;;;;;;;;;;10104887;29;20044;-91
2023/09/08 23:52:16;;;;;;;22.92;14.43;;;;;;;;;;10104982;29;20036;-87
2023/09/08 23:57:17;;;;;;;21.98;15.07;;;;;;;;;;10116022;29;20028;-88
